Saint Louis, MO

3:16 PM CDT on September 03, 2015 (GMT -0500)
Webster Groves | | Change Station
CLOSE
Current Station
Personal Weather Station
Location: Webster Groves, MO
Elevation: 571 ft
Nearby Weather Stations

Elev 571 ft 38.59 °N, 90.35 °W | Updated 1 minute ago

Partly Cloudy
Partly Cloudy
90.5 °F
Feels Like 87 °F
N
7.0
Wind Variable Wind from South

Today
High -- | Low -- °F
--% Chance of Precip.
Yesterday
High -- | Low -- °F
Precip. -- in
6:32 AM 7:28 PM
Waning Gibbous, 67% visible
Pressure 29.92 in
Visibility 10.0 miles
Clouds Few 5500 ft
Scattered Clouds 25000 ft
Heat Index 87 °F
Dew Point 6 °F
Humidity 4%
Rainfall 0.00 in
Snow Depth Not available.
UV 6 out of 12
Pollen 11.20 out of 12
Air Quality Not available.
Flu Activity Not available.
METAR KSTL 031951Z 25008KT 10SM FEW055 SCT250 34/19 A2996 RMK AO2 SLP130 T03390189
Pressure 29.92 in
Visibility 10.0 miles
Clouds Few 5500 ft
Scattered Clouds 25000 ft
Heat Index 87 °F
Dew Point 6 °F
Humidity 4%
Rainfall 0.00 in
Snow Depth Not available.
UV 6 out of 12
Pollen 11.20 out of 12
Air Quality Not available.
Flu Activity Not available.
METAR KSTL 031951Z 25008KT 10SM FEW055 SCT250 34/19 A2996 RMK AO2 SLP130 T03390189

10-Day Weather Forecast

×

Almanac

Astronomy

Sep. 03, 2015 Rise Set
Actual Time
Civil Twilight
Nautical Twilight
Astronomical Twilight
Moon
Length of Visible Light
Length of Day
Tomorrow will be .
, % of the Moon is Illuminated

Today's Extremes

State Highs State Lows

Community

WunderPhotos

Upload Photos

1,852,019 photos uploaded!

WunderBlogs® & News

Nearby

Air Quality

  Air Quality AQ Index Pollutant
Not available.

Snow Depth

Station Depth Elevation

Earthquake Activity

City Distance Mag. Time & Date
Minimum magnitude displayed is 2.5.

Coastal Water Temperatures

Place Temperature

Stations

Nearby Weather Stations

Station Location Temp. Windchill Dew Point Humidity Wind Precip. Elev Updated Type